sensor_id;sensor_type;location;lat;lon;timestamp;P1;durP1;ratioP1;P2;durP2;ratioP2
5995;SDS011;3026;53.612;7.278;2022-12-19T00:00:42;16.43;;;9.67;;
5995;SDS011;3026;53.612;7.278;2022-12-19T00:03:10;16.00;;;9.40;;
5995;SDS011;3026;53.612;7.278;2022-12-19T00:05:37;14.77;;;8.37;;
5995;SDS011;3026;53.612;7.278;2022-12-19T00:08:05;18.33;;;10.10;;
5995;SDS011;3026;53.612;7.278;2022-12-19T00:10:38;16.57;;;9.87;;
5995;SDS011;3026;53.612;7.278;2022-12-19T00:13:05;17.77;;;10.47;;
5995;SDS011;3026;53.612;7.278;2022-12-19T00:15:33;18.20;;;10.83;;
5995;SDS011;3026;53.612;7.278;2022-12-19T00:18:00;18.03;;;9.27;;
5995;SDS011;3026;53.612;7.278;2022-12-19T00:20:28;18.83;;;9.97;;
5995;SDS011;3026;53.612;7.278;2022-12-19T00:22:56;16.77;;;9.40;;
5995;SDS011;3026;53.612;7.278;2022-12-19T00:25:23;20.00;;;10.87;;
5995;SDS011;3026;53.612;7.278;2022-12-19T00:27:49;21.73;;;10.73;;
5995;SDS011;3026;53.612;7.278;2022-12-19T00:30:16;18.73;;;10.43;;
5995;SDS011;3026;53.612;7.278;2022-12-19T00:32:43;21.20;;;10.87;;
5995;SDS011;3026;53.612;7.278;2022-12-19T00:35:10;23.13;;;12.43;;
5995;SDS011;3026;53.612;7.278;2022-12-19T00:37:39;20.03;;;10.80;;
5995;SDS011;3026;53.612;7.278;2022-12-19T00:40:06;18.03;;;10.43;;
5995;SDS011;3026;53.612;7.278;2022-12-19T00:42:33;22.27;;;11.70;;
5995;SDS011;3026;53.612;7.278;2022-12-19T00:45:00;19.47;;;11.83;;
5995;SDS011;3026;53.612;7.278;2022-12-19T00:47:27;21.97;;;11.80;;
5995;SDS011;3026;53.612;7.278;2022-12-19T00:49:54;19.67;;;10.53;;
5995;SDS011;3026;53.612;7.278;2022-12-19T00:52:21;21.97;;;11.00;;
5995;SDS011;3026;53.612;7.278;2022-12-19T00:54:52;20.00;;;11.77;;
5995;SDS011;3026;53.612;7.278;2022-12-19T00:57:19;25.07;;;12.07;;
5995;SDS011;3026;53.612;7.278;2022-12-19T00:59:46;23.50;;;12.77;;
5995;SDS011;3026;53.612;7.278;2022-12-19T01:02:13;21.13;;;11.97;;
5995;SDS011;3026;53.612;7.278;2022-12-19T01:04:40;22.27;;;11.13;;
5995;SDS011;3026;53.612;7.278;2022-12-19T01:07:07;21.90;;;12.07;;
5995;SDS011;3026;53.612;7.278;2022-12-19T01:09:35;21.07;;;10.87;;
5995;SDS011;3026;53.612;7.278;2022-12-19T01:12:03;20.60;;;11.57;;
5995;SDS011;3026;53.612;7.278;2022-12-19T01:14:50;21.37;;;11.90;;
5995;SDS011;3026;53.612;7.278;2022-12-19T01:17:18;20.33;;;11.77;;
5995;SDS011;3026;53.612;7.278;2022-12-19T01:19:45;21.77;;;11.67;;
5995;SDS011;3026;53.612;7.278;2022-12-19T01:22:11;18.87;;;11.50;;
5995;SDS011;3026;53.612;7.278;2022-12-19T01:24:38;20.40;;;11.60;;
5995;SDS011;3026;53.612;7.278;2022-12-19T01:27:06;25.00;;;12.53;;
5995;SDS011;3026;53.612;7.278;2022-12-19T01:29:33;23.33;;;13.67;;
5995;SDS011;3026;53.612;7.278;2022-12-19T01:32:00;23.50;;;13.03;;
5995;SDS011;3026;53.612;7.278;2022-12-19T01:34:27;20.67;;;11.93;;
5995;SDS011;3026;53.612;7.278;2022-12-19T01:36:54;26.87;;;13.10;;
5995;SDS011;3026;53.612;7.278;2022-12-19T01:39:21;21.53;;;12.93;;
5995;SDS011;3026;53.612;7.278;2022-12-19T01:41:47;25.20;;;13.63;;
5995;SDS011;3026;53.612;7.278;2022-12-19T01:44:16;20.57;;;12.37;;
5995;SDS011;3026;53.612;7.278;2022-12-19T01:46:43;21.23;;;12.40;;
5995;SDS011;3026;53.612;7.278;2022-12-19T01:49:13;25.17;;;13.60;;
5995;SDS011;3026;53.612;7.278;2022-12-19T01:51:44;24.07;;;13.53;;
5995;SDS011;3026;53.612;7.278;2022-12-19T01:54:14;22.90;;;13.47;;
5995;SDS011;3026;53.612;7.278;2022-12-19T01:56:48;24.77;;;13.27;;
5995;SDS011;3026;53.612;7.278;2022-12-19T01:59:18;24.53;;;13.43;;
5995;SDS011;3026;53.612;7.278;2022-12-19T02:01:49;25.33;;;13.43;;
5995;SDS011;3026;53.612;7.278;2022-12-19T02:04:21;24.17;;;12.87;;
5995;SDS011;3026;53.612;7.278;2022-12-19T02:06:49;27.33;;;13.97;;
5995;SDS011;3026;53.612;7.278;2022-12-19T02:09:21;25.90;;;13.77;;
5995;SDS011;3026;53.612;7.278;2022-12-19T02:11:50;27.57;;;14.33;;
5995;SDS011;3026;53.612;7.278;2022-12-19T02:14:19;26.97;;;13.40;;
5995;SDS011;3026;53.612;7.278;2022-12-19T02:16:49;26.63;;;14.13;;
5995;SDS011;3026;53.612;7.278;2022-12-19T02:19:39;25.37;;;14.43;;
5995;SDS011;3026;53.612;7.278;2022-12-19T02:22:29;26.43;;;14.20;;
5995;SDS011;3026;53.612;7.278;2022-12-19T02:25:17;24.00;;;13.33;;
5995;SDS011;3026;53.612;7.278;2022-12-19T02:28:04;27.43;;;14.50;;
5995;SDS011;3026;53.612;7.278;2022-12-19T02:30:56;25.63;;;14.13;;
5995;SDS011;3026;53.612;7.278;2022-12-19T02:33:33;22.33;;;13.67;;
5995;SDS011;3026;53.612;7.278;2022-12-19T02:36:07;25.63;;;14.33;;
5995;SDS011;3026;53.612;7.278;2022-12-19T02:38:42;22.90;;;13.43;;
5995;SDS011;3026;53.612;7.278;2022-12-19T02:41:14;23.70;;;13.50;;
5995;SDS011;3026;53.612;7.278;2022-12-19T02:43:47;25.90;;;14.20;;
5995;SDS011;3026;53.612;7.278;2022-12-19T02:46:18;25.40;;;14.87;;
5995;SDS011;3026;53.612;7.278;2022-12-19T02:48:46;24.47;;;13.43;;
5995;SDS011;3026;53.612;7.278;2022-12-19T02:51:13;24.23;;;14.43;;
5995;SDS011;3026;53.612;7.278;2022-12-19T02:53:40;26.00;;;14.60;;
5995;SDS011;3026;53.612;7.278;2022-12-19T02:56:12;26.23;;;14.03;;
5995;SDS011;3026;53.612;7.278;2022-12-19T02:58:49;26.80;;;13.70;;
5995;SDS011;3026;53.612;7.278;2022-12-19T03:01:27;24.83;;;15.53;;
5995;SDS011;3026;53.612;7.278;2022-12-19T03:04:12;29.67;;;15.50;;
5995;SDS011;3026;53.612;7.278;2022-12-19T03:06:46;25.17;;;13.90;;
5995;SDS011;3026;53.612;7.278;2022-12-19T03:09:20;23.23;;;13.27;;
5995;SDS011;3026;53.612;7.278;2022-12-19T03:12:00;25.37;;;13.47;;
5995;SDS011;3026;53.612;7.278;2022-12-19T03:14:32;27.97;;;14.37;;
5995;SDS011;3026;53.612;7.278;2022-12-19T03:17:02;31.53;;;15.03;;
5995;SDS011;3026;53.612;7.278;2022-12-19T03:19:31;24.73;;;13.63;;
5995;SDS011;3026;53.612;7.278;2022-12-19T03:21:58;25.90;;;14.50;;
5995;SDS011;3026;53.612;7.278;2022-12-19T03:24:26;28.23;;;14.47;;
5995;SDS011;3026;53.612;7.278;2022-12-19T03:26:55;29.37;;;15.20;;
5995;SDS011;3026;53.612;7.278;2022-12-19T03:29:28;29.47;;;14.83;;
5995;SDS011;3026;53.612;7.278;2022-12-19T03:31:59;24.67;;;12.90;;
5995;SDS011;3026;53.612;7.278;2022-12-19T03:34:33;28.33;;;14.13;;
5995;SDS011;3026;53.612;7.278;2022-12-19T03:37:04;28.60;;;15.27;;
5995;SDS011;3026;53.612;7.278;2022-12-19T03:39:36;26.33;;;14.50;;
5995;SDS011;3026;53.612;7.278;2022-12-19T03:42:06;27.20;;;15.03;;
5995;SDS011;3026;53.612;7.278;2022-12-19T03:44:51;26.83;;;14.50;;
5995;SDS011;3026;53.612;7.278;2022-12-19T03:47:22;29.07;;;14.90;;
5995;SDS011;3026;53.612;7.278;2022-12-19T03:49:55;30.53;;;15.17;;
5995;SDS011;3026;53.612;7.278;2022-12-19T03:52:23;28.10;;;15.80;;
5995;SDS011;3026;53.612;7.278;2022-12-19T03:55:00;31.30;;;16.57;;
5995;SDS011;3026;53.612;7.278;2022-12-19T03:57:35;29.30;;;14.97;;
5995;SDS011;3026;53.612;7.278;2022-12-19T04:00:08;31.80;;;15.50;;
5995;SDS011;3026;53.612;7.278;2022-12-19T04:02:39;27.50;;;15.00;;
5995;SDS011;3026;53.612;7.278;2022-12-19T04:05:11;32.23;;;14.60;;
5995;SDS011;3026;53.612;7.278;2022-12-19T04:07:40;29.93;;;15.17;;
5995;SDS011;3026;53.612;7.278;2022-12-19T04:10:09;29.60;;;15.07;;
5995;SDS011;3026;53.612;7.278;2022-12-19T04:12:40;29.17;;;15.93;;
5995;SDS011;3026;53.612;7.278;2022-12-19T04:15:10;27.67;;;15.10;;
5995;SDS011;3026;53.612;7.278;2022-12-19T04:17:41;27.83;;;14.70;;
5995;SDS011;3026;53.612;7.278;2022-12-19T04:20:13;25.30;;;14.37;;
5995;SDS011;3026;53.612;7.278;2022-12-19T04:22:43;31.67;;;15.67;;
5995;SDS011;3026;53.612;7.278;2022-12-19T04:25:17;24.63;;;13.77;;
5995;SDS011;3026;53.612;7.278;2022-12-19T04:27:49;27.07;;;16.10;;
5995;SDS011;3026;53.612;7.278;2022-12-19T04:30:19;28.60;;;14.70;;
5995;SDS011;3026;53.612;7.278;2022-12-19T04:32:46;28.83;;;15.13;;
5995;SDS011;3026;53.612;7.278;2022-12-19T04:35:14;30.47;;;16.53;;
5995;SDS011;3026;53.612;7.278;2022-12-19T04:37:41;28.07;;;15.97;;
5995;SDS011;3026;53.612;7.278;2022-12-19T04:40:09;32.23;;;16.57;;
5995;SDS011;3026;53.612;7.278;2022-12-19T04:42:36;31.93;;;16.33;;
5995;SDS011;3026;53.612;7.278;2022-12-19T04:45:04;30.10;;;16.20;;
5995;SDS011;3026;53.612;7.278;2022-12-19T04:47:31;32.50;;;16.13;;
5995;SDS011;3026;53.612;7.278;2022-12-19T04:49:58;28.13;;;15.23;;
5995;SDS011;3026;53.612;7.278;2022-12-19T04:52:27;32.97;;;16.40;;
5995;SDS011;3026;53.612;7.278;2022-12-19T04:54:54;30.10;;;15.90;;
5995;SDS011;3026;53.612;7.278;2022-12-19T04:57:21;27.43;;;15.03;;
5995;SDS011;3026;53.612;7.278;2022-12-19T04:59:48;28.33;;;15.70;;
5995;SDS011;3026;53.612;7.278;2022-12-19T05:02:15;29.40;;;15.83;;
5995;SDS011;3026;53.612;7.278;2022-12-19T05:04:42;28.93;;;15.37;;
5995;SDS011;3026;53.612;7.278;2022-12-19T05:07:09;26.30;;;14.87;;
5995;SDS011;3026;53.612;7.278;2022-12-19T05:09:37;27.30;;;14.00;;
5995;SDS011;3026;53.612;7.278;2022-12-19T05:12:04;29.57;;;15.67;;
5995;SDS011;3026;53.612;7.278;2022-12-19T05:14:32;31.73;;;16.27;;
5995;SDS011;3026;53.612;7.278;2022-12-19T05:16:59;29.30;;;15.00;;
5995;SDS011;3026;53.612;7.278;2022-12-19T05:19:26;29.13;;;15.33;;
5995;SDS011;3026;53.612;7.278;2022-12-19T05:21:53;31.30;;;16.07;;
5995;SDS011;3026;53.612;7.278;2022-12-19T05:24:20;32.87;;;15.93;;
5995;SDS011;3026;53.612;7.278;2022-12-19T05:26:48;32.23;;;16.43;;
5995;SDS011;3026;53.612;7.278;2022-12-19T05:29:15;32.17;;;16.73;;
5995;SDS011;3026;53.612;7.278;2022-12-19T05:31:42;29.90;;;16.50;;
5995;SDS011;3026;53.612;7.278;2022-12-19T05:34:09;28.90;;;16.13;;
5995;SDS011;3026;53.612;7.278;2022-12-19T05:36:36;32.33;;;17.10;;
5995;SDS011;3026;53.612;7.278;2022-12-19T05:39:03;28.50;;;16.07;;
5995;SDS011;3026;53.612;7.278;2022-12-19T05:41:30;32.37;;;17.70;;
5995;SDS011;3026;53.612;7.278;2022-12-19T05:43:58;31.27;;;16.20;;
5995;SDS011;3026;53.612;7.278;2022-12-19T05:46:25;32.83;;;16.10;;
5995;SDS011;3026;53.612;7.278;2022-12-19T05:48:52;27.47;;;15.23;;
5995;SDS011;3026;53.612;7.278;2022-12-19T05:51:20;33.30;;;16.17;;
5995;SDS011;3026;53.612;7.278;2022-12-19T05:53:47;30.07;;;16.20;;
5995;SDS011;3026;53.612;7.278;2022-12-19T05:56:15;27.70;;;16.63;;
5995;SDS011;3026;53.612;7.278;2022-12-19T05:58:42;29.87;;;16.10;;
5995;SDS011;3026;53.612;7.278;2022-12-19T06:01:12;29.30;;;15.20;;
5995;SDS011;3026;53.612;7.278;2022-12-19T06:03:41;29.17;;;15.50;;
5995;SDS011;3026;53.612;7.278;2022-12-19T06:06:09;28.40;;;16.47;;
5995;SDS011;3026;53.612;7.278;2022-12-19T06:08:38;35.37;;;17.17;;
5995;SDS011;3026;53.612;7.278;2022-12-19T06:11:06;28.43;;;16.53;;
5995;SDS011;3026;53.612;7.278;2022-12-19T06:13:34;28.73;;;15.00;;
5995;SDS011;3026;53.612;7.278;2022-12-19T06:16:02;34.30;;;17.43;;
5995;SDS011;3026;53.612;7.278;2022-12-19T06:18:32;31.07;;;16.43;;
5995;SDS011;3026;53.612;7.278;2022-12-19T06:21:00;30.03;;;16.90;;
5995;SDS011;3026;53.612;7.278;2022-12-19T06:23:28;29.83;;;16.67;;
5995;SDS011;3026;53.612;7.278;2022-12-19T06:25:57;26.70;;;16.13;;
5995;SDS011;3026;53.612;7.278;2022-12-19T06:28:24;31.67;;;16.40;;
5995;SDS011;3026;53.612;7.278;2022-12-19T06:30:54;33.00;;;17.03;;
5995;SDS011;3026;53.612;7.278;2022-12-19T06:33:21;33.00;;;17.33;;
5995;SDS011;3026;53.612;7.278;2022-12-19T06:35:55;28.03;;;16.37;;
5995;SDS011;3026;53.612;7.278;2022-12-19T06:38:22;30.73;;;18.17;;
5995;SDS011;3026;53.612;7.278;2022-12-19T06:40:49;30.23;;;16.87;;
5995;SDS011;3026;53.612;7.278;2022-12-19T06:43:35;30.20;;;16.83;;
5995;SDS011;3026;53.612;7.278;2022-12-19T06:46:02;30.53;;;17.73;;
5995;SDS011;3026;53.612;7.278;2022-12-19T06:48:29;27.23;;;16.03;;
5995;SDS011;3026;53.612;7.278;2022-12-19T06:50:57;28.13;;;16.63;;
5995;SDS011;3026;53.612;7.278;2022-12-19T06:53:24;30.80;;;17.33;;
5995;SDS011;3026;53.612;7.278;2022-12-19T06:55:51;34.17;;;17.07;;
5995;SDS011;3026;53.612;7.278;2022-12-19T06:58:20;33.63;;;17.70;;
5995;SDS011;3026;53.612;7.278;2022-12-19T07:00:48;33.10;;;16.73;;
5995;SDS011;3026;53.612;7.278;2022-12-19T07:03:16;31.20;;;16.93;;
5995;SDS011;3026;53.612;7.278;2022-12-19T07:05:45;31.70;;;16.60;;
5995;SDS011;3026;53.612;7.278;2022-12-19T07:08:13;25.77;;;15.87;;
5995;SDS011;3026;53.612;7.278;2022-12-19T07:10:40;28.40;;;16.67;;
5995;SDS011;3026;53.612;7.278;2022-12-19T07:13:07;28.73;;;16.80;;
5995;SDS011;3026;53.612;7.278;2022-12-19T07:15:34;27.43;;;16.80;;
5995;SDS011;3026;53.612;7.278;2022-12-19T07:18:02;29.37;;;16.30;;
5995;SDS011;3026;53.612;7.278;2022-12-19T07:20:30;26.73;;;15.30;;
5995;SDS011;3026;53.612;7.278;2022-12-19T07:23:00;25.77;;;15.63;;
5995;SDS011;3026;53.612;7.278;2022-12-19T07:25:30;27.63;;;15.53;;
5995;SDS011;3026;53.612;7.278;2022-12-19T07:27:57;26.57;;;15.60;;
5995;SDS011;3026;53.612;7.278;2022-12-19T07:30:24;25.23;;;15.10;;
5995;SDS011;3026;53.612;7.278;2022-12-19T07:32:51;26.87;;;15.50;;
5995;SDS011;3026;53.612;7.278;2022-12-19T07:35:17;25.20;;;14.87;;
5995;SDS011;3026;53.612;7.278;2022-12-19T07:37:47;27.83;;;15.30;;
5995;SDS011;3026;53.612;7.278;2022-12-19T07:40:14;24.40;;;14.67;;
5995;SDS011;3026;53.612;7.278;2022-12-19T07:42:43;28.93;;;14.33;;
5995;SDS011;3026;53.612;7.278;2022-12-19T07:45:10;30.37;;;16.57;;
5995;SDS011;3026;53.612;7.278;2022-12-19T07:47:37;23.67;;;14.50;;
5995;SDS011;3026;53.612;7.278;2022-12-19T07:50:04;30.13;;;15.23;;
5995;SDS011;3026;53.612;7.278;2022-12-19T07:52:31;25.10;;;14.77;;
5995;SDS011;3026;53.612;7.278;2022-12-19T07:54:58;25.50;;;14.67;;
5995;SDS011;3026;53.612;7.278;2022-12-19T07:57:25;22.97;;;14.07;;
5995;SDS011;3026;53.612;7.278;2022-12-19T07:59:54;26.53;;;14.80;;
5995;SDS011;3026;53.612;7.278;2022-12-19T08:02:20;25.83;;;14.67;;
5995;SDS011;3026;53.612;7.278;2022-12-19T08:04:47;21.30;;;14.27;;
5995;SDS011;3026;53.612;7.278;2022-12-19T08:07:15;25.73;;;14.50;;
5995;SDS011;3026;53.612;7.278;2022-12-19T08:09:41;24.40;;;13.67;;
5995;SDS011;3026;53.612;7.278;2022-12-19T08:12:08;22.53;;;13.70;;
5995;SDS011;3026;53.612;7.278;2022-12-19T08:14:35;22.33;;;13.60;;
5995;SDS011;3026;53.612;7.278;2022-12-19T08:17:03;23.27;;;13.37;;
5995;SDS011;3026;53.612;7.278;2022-12-19T08:19:30;24.30;;;13.33;;
5995;SDS011;3026;53.612;7.278;2022-12-19T08:21:57;18.23;;;11.83;;
5995;SDS011;3026;53.612;7.278;2022-12-19T08:24:24;18.73;;;12.43;;
5995;SDS011;3026;53.612;7.278;2022-12-19T08:26:51;20.13;;;11.93;;
5995;SDS011;3026;53.612;7.278;2022-12-19T08:29:17;21.20;;;12.73;;
5995;SDS011;3026;53.612;7.278;2022-12-19T08:31:45;21.77;;;12.50;;
5995;SDS011;3026;53.612;7.278;2022-12-19T08:34:13;21.27;;;13.97;;
5995;SDS011;3026;53.612;7.278;2022-12-19T08:36:40;20.40;;;12.93;;
5995;SDS011;3026;53.612;7.278;2022-12-19T08:39:07;20.37;;;12.63;;
5995;SDS011;3026;53.612;7.278;2022-12-19T08:41:34;22.20;;;14.27;;
5995;SDS011;3026;53.612;7.278;2022-12-19T08:44:01;21.30;;;12.77;;
5995;SDS011;3026;53.612;7.278;2022-12-19T08:46:28;22.20;;;13.93;;
5995;SDS011;3026;53.612;7.278;2022-12-19T08:48:55;19.43;;;12.73;;
5995;SDS011;3026;53.612;7.278;2022-12-19T08:51:23;20.07;;;13.60;;
5995;SDS011;3026;53.612;7.278;2022-12-19T08:53:51;22.60;;;12.90;;
5995;SDS011;3026;53.612;7.278;2022-12-19T08:56:18;22.30;;;13.10;;
5995;SDS011;3026;53.612;7.278;2022-12-19T08:58:47;21.70;;;13.67;;
5995;SDS011;3026;53.612;7.278;2022-12-19T09:01:16;20.33;;;12.57;;
5995;SDS011;3026;53.612;7.278;2022-12-19T09:03:44;21.90;;;12.63;;
5995;SDS011;3026;53.612;7.278;2022-12-19T09:06:12;19.77;;;13.03;;
5995;SDS011;3026;53.612;7.278;2022-12-19T09:08:42;18.90;;;13.07;;
5995;SDS011;3026;53.612;7.278;2022-12-19T09:11:09;18.03;;;12.03;;
5995;SDS011;3026;53.612;7.278;2022-12-19T09:13:40;17.40;;;11.03;;
5995;SDS011;3026;53.612;7.278;2022-12-19T09:16:09;17.40;;;12.33;;
5995;SDS011;3026;53.612;7.278;2022-12-19T09:18:38;18.57;;;11.87;;
5995;SDS011;3026;53.612;7.278;2022-12-19T09:21:05;16.87;;;11.27;;
5995;SDS011;3026;53.612;7.278;2022-12-19T09:23:33;14.43;;;10.77;;
5995;SDS011;3026;53.612;7.278;2022-12-19T09:26:02;17.63;;;11.70;;
5995;SDS011;3026;53.612;7.278;2022-12-19T09:28:31;14.53;;;10.17;;
5995;SDS011;3026;53.612;7.278;2022-12-19T09:30:59;15.17;;;9.40;;
5995;SDS011;3026;53.612;7.278;2022-12-19T09:33:29;18.13;;;11.20;;
5995;SDS011;3026;53.612;7.278;2022-12-19T09:35:57;15.00;;;9.97;;
5995;SDS011;3026;53.612;7.278;2022-12-19T09:38:25;12.97;;;9.60;;
5995;SDS011;3026;53.612;7.278;2022-12-19T09:40:58;17.90;;;10.70;;
5995;SDS011;3026;53.612;7.278;2022-12-19T09:43:45;16.27;;;10.40;;
5995;SDS011;3026;53.612;7.278;2022-12-19T09:46:23;15.23;;;9.50;;
5995;SDS011;3026;53.612;7.278;2022-12-19T09:48:58;13.93;;;8.80;;
5995;SDS011;3026;53.612;7.278;2022-12-19T09:51:29;14.67;;;9.40;;
5995;SDS011;3026;53.612;7.278;2022-12-19T09:54:01;12.33;;;9.03;;
5995;SDS011;3026;53.612;7.278;2022-12-19T09:56:34;14.03;;;9.60;;
5995;SDS011;3026;53.612;7.278;2022-12-19T09:59:07;15.73;;;10.17;;
5995;SDS011;3026;53.612;7.278;2022-12-19T10:01:43;15.23;;;9.10;;
5995;SDS011;3026;53.612;7.278;2022-12-19T10:04:17;17.03;;;10.10;;
5995;SDS011;3026;53.612;7.278;2022-12-19T10:06:44;13.40;;;9.07;;
5995;SDS011;3026;53.612;7.278;2022-12-19T10:09:11;14.37;;;10.10;;
5995;SDS011;3026;53.612;7.278;2022-12-19T10:11:49;15.77;;;10.47;;
5995;SDS011;3026;53.612;7.278;2022-12-19T10:14:30;13.80;;;9.23;;
5995;SDS011;3026;53.612;7.278;2022-12-19T10:17:08;14.07;;;9.17;;
5995;SDS011;3026;53.612;7.278;2022-12-19T10:19:44;14.77;;;10.07;;
5995;SDS011;3026;53.612;7.278;2022-12-19T10:22:30;12.80;;;9.47;;
5995;SDS011;3026;53.612;7.278;2022-12-19T10:25:13;16.20;;;10.23;;
5995;SDS011;3026;53.612;7.278;2022-12-19T10:27:59;15.97;;;10.37;;
5995;SDS011;3026;53.612;7.278;2022-12-19T10:30:38;16.57;;;10.90;;
5995;SDS011;3026;53.612;7.278;2022-12-19T10:33:12;14.83;;;9.83;;
5995;SDS011;3026;53.612;7.278;2022-12-19T10:35:43;14.57;;;11.37;;
5995;SDS011;3026;53.612;7.278;2022-12-19T10:38:18;14.83;;;9.67;;
5995;SDS011;3026;53.612;7.278;2022-12-19T10:40:51;14.53;;;9.40;;
5995;SDS011;3026;53.612;7.278;2022-12-19T10:43:34;15.20;;;10.23;;
5995;SDS011;3026;53.612;7.278;2022-12-19T10:46:09;15.93;;;9.90;;
5995;SDS011;3026;53.612;7.278;2022-12-19T10:48:40;17.50;;;10.27;;
5995;SDS011;3026;53.612;7.278;2022-12-19T10:51:10;14.13;;;11.03;;
5995;SDS011;3026;53.612;7.278;2022-12-19T10:53:38;13.30;;;10.10;;
5995;SDS011;3026;53.612;7.278;2022-12-19T10:56:10;14.00;;;10.27;;
5995;SDS011;3026;53.612;7.278;2022-12-19T10:58:42;19.97;;;10.97;;
5995;SDS011;3026;53.612;7.278;2022-12-19T11:01:11;15.80;;;11.00;;
5995;SDS011;3026;53.612;7.278;2022-12-19T11:03:40;15.53;;;11.00;;
5995;SDS011;3026;53.612;7.278;2022-12-19T11:09:16;15.60;;;10.60;;
5995;SDS011;3026;53.612;7.278;2022-12-19T11:11:45;15.97;;;11.27;;
5995;SDS011;3026;53.612;7.278;2022-12-19T11:14:21;15.37;;;11.03;;
5995;SDS011;3026;53.612;7.278;2022-12-19T11:16:51;17.83;;;11.40;;
5995;SDS011;3026;53.612;7.278;2022-12-19T11:19:23;16.60;;;11.43;;
5995;SDS011;3026;53.612;7.278;2022-12-19T11:21:55;16.60;;;11.37;;
5995;SDS011;3026;53.612;7.278;2022-12-19T11:24:26;13.77;;;9.93;;
5995;SDS011;3026;53.612;7.278;2022-12-19T11:26:59;16.30;;;11.67;;
5995;SDS011;3026;53.612;7.278;2022-12-19T11:29:35;14.20;;;10.27;;
5995;SDS011;3026;53.612;7.278;2022-12-19T11:32:20;16.53;;;11.10;;
5995;SDS011;3026;53.612;7.278;2022-12-19T11:34:49;18.37;;;11.87;;
5995;SDS011;3026;53.612;7.278;2022-12-19T11:37:17;17.47;;;11.50;;
5995;SDS011;3026;53.612;7.278;2022-12-19T11:39:48;16.53;;;11.10;;
5995;SDS011;3026;53.612;7.278;2022-12-19T11:42:20;18.57;;;11.37;;
5995;SDS011;3026;53.612;7.278;2022-12-19T11:44:54;14.97;;;11.00;;
5995;SDS011;3026;53.612;7.278;2022-12-19T11:47:29;18.20;;;11.27;;
5995;SDS011;3026;53.612;7.278;2022-12-19T11:50:01;17.13;;;11.30;;
5995;SDS011;3026;53.612;7.278;2022-12-19T11:52:41;13.77;;;10.47;;
5995;SDS011;3026;53.612;7.278;2022-12-19T11:55:17;15.30;;;10.73;;
5995;SDS011;3026;53.612;7.278;2022-12-19T11:57:49;16.90;;;11.33;;
5995;SDS011;3026;53.612;7.278;2022-12-19T12:00:18;17.90;;;10.50;;
5995;SDS011;3026;53.612;7.278;2022-12-19T12:02:57;14.13;;;10.33;;
5995;SDS011;3026;53.612;7.278;2022-12-19T12:05:43;16.10;;;11.27;;
5995;SDS011;3026;53.612;7.278;2022-12-19T12:08:17;16.77;;;10.63;;
5995;SDS011;3026;53.612;7.278;2022-12-19T12:10:58;16.47;;;10.83;;
5995;SDS011;3026;53.612;7.278;2022-12-19T12:13:30;14.10;;;9.90;;
5995;SDS011;3026;53.612;7.278;2022-12-19T12:16:07;15.87;;;11.17;;
5995;SDS011;3026;53.612;7.278;2022-12-19T12:18:45;12.80;;;9.93;;
5995;SDS011;3026;53.612;7.278;2022-12-19T12:21:22;13.27;;;9.23;;
5995;SDS011;3026;53.612;7.278;2022-12-19T12:23:58;13.07;;;9.60;;
5995;SDS011;3026;53.612;7.278;2022-12-19T12:26:32;15.77;;;10.17;;
5995;SDS011;3026;53.612;7.278;2022-12-19T12:29:10;13.97;;;9.73;;
5995;SDS011;3026;53.612;7.278;2022-12-19T12:31:48;14.13;;;9.70;;
5995;SDS011;3026;53.612;7.278;2022-12-19T12:34:40;11.07;;;8.73;;
5995;SDS011;3026;53.612;7.278;2022-12-19T12:37:19;13.03;;;9.80;;
5995;SDS011;3026;53.612;7.278;2022-12-19T12:40:02;12.30;;;9.30;;
5995;SDS011;3026;53.612;7.278;2022-12-19T12:42:42;14.63;;;10.03;;
5995;SDS011;3026;53.612;7.278;2022-12-19T12:45:21;13.70;;;9.87;;
5995;SDS011;3026;53.612;7.278;2022-12-19T12:47:52;13.53;;;9.57;;
5995;SDS011;3026;53.612;7.278;2022-12-19T12:50:20;15.53;;;10.03;;
5995;SDS011;3026;53.612;7.278;2022-12-19T12:52:51;13.23;;;9.57;;
5995;SDS011;3026;53.612;7.278;2022-12-19T12:55:22;14.70;;;9.30;;
5995;SDS011;3026;53.612;7.278;2022-12-19T12:57:52;11.13;;;9.23;;
5995;SDS011;3026;53.612;7.278;2022-12-19T13:00:24;10.87;;;8.90;;
5995;SDS011;3026;53.612;7.278;2022-12-19T13:02:55;12.27;;;8.80;;
5995;SDS011;3026;53.612;7.278;2022-12-19T13:05:34;16.40;;;9.80;;
5995;SDS011;3026;53.612;7.278;2022-12-19T13:11:00;12.87;;;10.13;;
5995;SDS011;3026;53.612;7.278;2022-12-19T13:13:47;14.73;;;10.13;;
5995;SDS011;3026;53.612;7.278;2022-12-19T13:19:18;11.90;;;8.90;;
5995;SDS011;3026;53.612;7.278;2022-12-19T13:24:42;12.90;;;9.43;;
5995;SDS011;3026;53.612;7.278;2022-12-19T13:30:15;13.80;;;8.80;;
5995;SDS011;3026;53.612;7.278;2022-12-19T13:35:42;15.57;;;9.60;;
5995;SDS011;3026;53.612;7.278;2022-12-19T13:38:19;13.23;;;9.13;;
5995;SDS011;3026;53.612;7.278;2022-12-19T13:40:54;13.80;;;9.50;;
5995;SDS011;3026;53.612;7.278;2022-12-19T13:43:25;12.27;;;9.50;;
5995;SDS011;3026;53.612;7.278;2022-12-19T13:46:23;12.37;;;9.33;;
5995;SDS011;3026;53.612;7.278;2022-12-19T13:49:03;14.47;;;9.80;;
5995;SDS011;3026;53.612;7.278;2022-12-19T13:51:45;11.13;;;8.70;;
5995;SDS011;3026;53.612;7.278;2022-12-19T13:54:18;16.13;;;9.53;;
5995;SDS011;3026;53.612;7.278;2022-12-19T13:56:49;13.03;;;9.73;;
5995;SDS011;3026;53.612;7.278;2022-12-19T13:59:18;12.00;;;9.97;;
5995;SDS011;3026;53.612;7.278;2022-12-19T14:01:47;14.07;;;10.37;;
5995;SDS011;3026;53.612;7.278;2022-12-19T14:04:24;13.07;;;9.80;;
5995;SDS011;3026;53.612;7.278;2022-12-19T14:06:56;13.80;;;10.00;;
5995;SDS011;3026;53.612;7.278;2022-12-19T14:09:26;11.80;;;9.30;;
5995;SDS011;3026;53.612;7.278;2022-12-19T14:11:57;12.73;;;9.33;;
5995;SDS011;3026;53.612;7.278;2022-12-19T14:14:27;12.47;;;8.77;;
5995;SDS011;3026;53.612;7.278;2022-12-19T14:17:12;12.77;;;8.87;;
5995;SDS011;3026;53.612;7.278;2022-12-19T14:19:43;12.07;;;8.53;;
5995;SDS011;3026;53.612;7.278;2022-12-19T14:22:17;11.67;;;8.93;;
5995;SDS011;3026;53.612;7.278;2022-12-19T14:24:52;11.40;;;8.73;;
5995;SDS011;3026;53.612;7.278;2022-12-19T14:27:20;12.47;;;9.60;;
5995;SDS011;3026;53.612;7.278;2022-12-19T14:29:53;11.33;;;8.77;;
5995;SDS011;3026;53.612;7.278;2022-12-19T14:32:21;12.40;;;9.37;;
5995;SDS011;3026;53.612;7.278;2022-12-19T14:34:49;12.00;;;9.40;;
5995;SDS011;3026;53.612;7.278;2022-12-19T14:37:28;12.07;;;8.90;;
5995;SDS011;3026;53.612;7.278;2022-12-19T14:39:57;14.43;;;8.97;;
5995;SDS011;3026;53.612;7.278;2022-12-19T14:42:26;14.20;;;9.50;;
5995;SDS011;3026;53.612;7.278;2022-12-19T14:45:30;11.13;;;9.10;;
5995;SDS011;3026;53.612;7.278;2022-12-19T14:48:01;14.67;;;9.50;;
5995;SDS011;3026;53.612;7.278;2022-12-19T14:50:29;12.90;;;9.60;;
5995;SDS011;3026;53.612;7.278;2022-12-19T14:53:13;15.00;;;9.57;;
5995;SDS011;3026;53.612;7.278;2022-12-19T14:55:41;14.60;;;8.93;;
5995;SDS011;3026;53.612;7.278;2022-12-19T14:58:14;12.07;;;8.97;;
5995;SDS011;3026;53.612;7.278;2022-12-19T15:00:44;14.40;;;10.53;;
5995;SDS011;3026;53.612;7.278;2022-12-19T15:03:17;10.47;;;8.43;;
5995;SDS011;3026;53.612;7.278;2022-12-19T15:05:48;12.60;;;9.53;;
5995;SDS011;3026;53.612;7.278;2022-12-19T15:08:21;13.17;;;9.93;;
5995;SDS011;3026;53.612;7.278;2022-12-19T15:10:56;13.20;;;9.80;;
5995;SDS011;3026;53.612;7.278;2022-12-19T15:13:49;10.40;;;8.90;;
5995;SDS011;3026;53.612;7.278;2022-12-19T15:16:22;13.97;;;10.33;;
5995;SDS011;3026;53.612;7.278;2022-12-19T15:18:50;13.90;;;9.90;;
5995;SDS011;3026;53.612;7.278;2022-12-19T15:21:20;10.37;;;9.23;;
5995;SDS011;3026;53.612;7.278;2022-12-19T15:23:49;16.43;;;9.93;;
5995;SDS011;3026;53.612;7.278;2022-12-19T15:26:17;13.67;;;10.23;;
5995;SDS011;3026;53.612;7.278;2022-12-19T15:28:46;15.03;;;9.80;;
5995;SDS011;3026;53.612;7.278;2022-12-19T15:31:19;15.23;;;10.03;;